»·PEaware :: WAT202 PHKO-KPDX

WAT202 :: PHKO-KPDX

FLIGHT INFORMATION

Flight Status: Arrived
Operator:
Walker Air Transport
More flights by this operator :: More flights under this callsign
Pilot: Nick L. (7253)
Aircraft: AÉROSPATIALE-BAC CONCORDE
(CONC)
More flights by this aircraft type
Origin: PHKO Kona Intl At Keahole
United States
Destination: KPDX Portland Intl
United States
More flights between these airports :: More routes between these airports
Route: AMERY4 ROWIN APACK R463 AUNTI A332 HEMLO MOXEE OCITY3
File this flight plan on PilotEdge
Remarks: Block cruise FL550-600
Altitude:
(Current/Filed)
59,000ft
Speed:
(Current/Filed)
999kts
Departed: 12-Mar-21 10:47 AM
Arrived: 12-Mar-21 01:32 PM
Distance/Time
Traveled:
2264nm/2:45
Distance/Time
To Go:
Arrived

Flight Plot

Page will automatically refresh every two minutes.

Flight plan parsing failed; only flown route is shown


Map Options




Map Legend


Flown Route
Filed Route
Departure Airport
Arrival Airport
Navaid (VOR, NDB)
Fix

Horizontal Profiles

Position Reports

Time Latitude Longitude Heading Altitude Ground
Speed
12-Mar-21 10:11 19.737250 -156.042253 95 70ft 0kts
12-Mar-21 10:12 19.737250 -156.042253 95 70ft 0kts
12-Mar-21 10:13 19.737250 -156.042253 95 69ft 0kts
12-Mar-21 10:14 19.737250 -156.042253 95 70ft 0kts
12-Mar-21 10:16 19.737250 -156.042253 95 70ft 0kts
12-Mar-21 10:16 19.737250 -156.042253 95 70ft 0kts
12-Mar-21 10:17 19.737250 -156.042253 95 70ft 0kts
12-Mar-21 10:18 19.737250 -156.042253 95 70ft 0kts
12-Mar-21 10:20 19.737250 -156.042253 95 70ft 0kts
12-Mar-21 10:20 19.737250 -156.042253 95 70ft 0kts
12-Mar-21 10:21 19.737250 -156.042253 95 70ft 0kts
12-Mar-21 10:22 19.737250 -156.042253 95 70ft 0kts
12-Mar-21 10:23 19.737250 -156.042253 95 70ft 0kts
12-Mar-21 10:24 19.737250 -156.042253 95 70ft 0kts
12-Mar-21 10:25 19.737250 -156.042253 95 70ft 0kts
12-Mar-21 10:26 19.737250 -156.042253 95 70ft 0kts
12-Mar-21 10:27 19.737250 -156.042253 95 70ft 0kts
12-Mar-21 10:28 19.737250 -156.042253 95 70ft 0kts
12-Mar-21 10:29 19.737250 -156.042253 95 70ft 0kts
12-Mar-21 10:30 19.737250 -156.042253 95 70ft 0kts
12-Mar-21 10:31 19.737259 -156.042361 95 70ft 1kts
12-Mar-21 10:32 19.737120 -156.042941 54 70ft 2kts
12-Mar-21 10:33 19.736600 -156.043285 8 70ft 2kts
12-Mar-21 10:34 19.736504 -156.043295 4 70ft 0kts
12-Mar-21 10:35 19.736504 -156.043295 4 70ft 0kts
12-Mar-21 10:36 19.736504 -156.043295 4 70ft 0kts
12-Mar-21 10:37 19.736504 -156.043295 4 70ft 0kts
12-Mar-21 10:38 19.736504 -156.043295 4 70ft 0kts
12-Mar-21 10:39 19.736504 -156.043295 4 70ft 0kts
12-Mar-21 10:40 19.736504 -156.043295 4 70ft 0kts
12-Mar-21 10:41 19.736504 -156.043295 4 70ft 0kts
12-Mar-21 10:42 19.737548 -156.043209 4 70ft 11kts
12-Mar-21 10:43 19.743252 -156.042679 3 70ft 28kts
12-Mar-21 10:44 19.753135 -156.041844 349 70ft 24kts
12-Mar-21 10:45 19.753072 -156.044399 186 70ft 0kts
12-Mar-21 10:46 19.707451 -156.049016 185 1532ft 260kts
12-Mar-21 10:47 19.673519 -156.096448 309 5199ft 250kts
12-Mar-21 10:48 19.749755 -156.121387 341 6895ft 320kts
12-Mar-21 10:49 19.811693 -156.190600 305 9401ft 324kts
12-Mar-21 10:50 19.865805 -156.271848 303 10155ft 322kts
12-Mar-21 10:51 19.918926 -156.353627 303 13313ft 333kts
12-Mar-21 10:52 19.992857 -156.407556 351 17456ft 338kts
12-Mar-21 10:53 20.094601 -156.415805 354 20462ft 380kts
12-Mar-21 10:54 20.206681 -156.417099 358 23629ft 415kts
12-Mar-21 10:55 20.333291 -156.414146 358 26779ft 475kts
12-Mar-21 10:56 20.473989 -156.410656 358 27865ft 546kts
12-Mar-21 10:57 20.628826 -156.406809 358 27906ft 541kts
12-Mar-21 10:58 20.783146 -156.402992 358 27905ft 541kts
12-Mar-21 10:59 20.938303 -156.399145 358 27904ft 541kts
12-Mar-21 11:00 21.092778 -156.395307 358 27904ft 541kts
12-Mar-21 11:01 21.247189 -156.391456 358 27911ft 541kts
12-Mar-21 11:02 21.406563 -156.387507 358 33187ft 574kts
12-Mar-21 11:03 21.579734 -156.383301 358 36117ft 639kts
12-Mar-21 11:04 21.771504 -156.378461 358 38098ft 702kts
12-Mar-21 11:05 21.982473 -156.373133 359 40003ft 783kts
12-Mar-21 11:06 22.225918 -156.366986 359 44156ft 943kts
12-Mar-21 11:07 22.503381 -156.360002 0 47236ft 1002kts
12-Mar-21 11:08 22.795781 -156.352584 0 49159ft 1055kts
12-Mar-21 11:09 23.103409 -156.344730 1 50879ft 1100kts
12-Mar-21 11:10 23.421852 -156.336571 1 52374ft 1133kts
12-Mar-21 11:11 23.744257 -156.328235 2 53515ft 1136kts
12-Mar-21 11:12 24.050972 -156.225349 25 54524ft 1138kts
12-Mar-21 11:13 24.302294 -156.012201 57 55331ft 1132kts
12-Mar-21 11:14 24.427992 -155.688618 60 55761ft 1130kts
12-Mar-21 11:15 24.631809 -155.415709 56 55910ft 1129kts
12-Mar-21 11:16 24.831553 -155.141576 41 56004ft 1135kts
12-Mar-21 11:17 25.064796 -154.892827 44 56211ft 1138kts
12-Mar-21 11:18 25.295163 -154.641574 44 56313ft 1138kts
12-Mar-21 11:19 25.525607 -154.388834 44 56391ft 1139kts
12-Mar-21 11:20 25.755718 -154.135005 45 56455ft 1138kts
12-Mar-21 11:21 25.985360 -153.880213 45 56503ft 1139kts
12-Mar-21 11:22 26.214086 -153.624958 45 56545ft 1139kts
12-Mar-21 11:23 26.442504 -153.368532 45 56586ft 1140kts
12-Mar-21 11:24 26.671147 -153.110316 45 56626ft 1140kts
12-Mar-21 11:25 26.898482 -152.852019 45 56666ft 1140kts
12-Mar-21 11:26 27.126198 -152.591701 45 56703ft 1141kts
12-Mar-21 11:27 27.353502 -152.330250 46 56746ft 1142kts
12-Mar-21 11:28 27.579916 -152.068183 45 56785ft 1142kts
12-Mar-21 11:29 27.806175 -151.804640 45 56823ft 1143kts
12-Mar-21 11:30 28.032310 -151.539541 45 56856ft 1143kts
12-Mar-21 11:31 28.257909 -151.273371 46 56894ft 1144kts
12-Mar-21 11:32 28.482250 -151.006945 46 56932ft 1144kts
12-Mar-21 11:33 28.707621 -150.737533 46 56967ft 1145kts
12-Mar-21 11:34 28.931850 -150.467708 46 57003ft 1145kts
12-Mar-21 11:35 29.156239 -150.195851 46 57029ft 1147kts
12-Mar-21 11:36 29.379837 -149.923071 46 57088ft 1148kts
12-Mar-21 11:37 29.602812 -149.649216 46 57111ft 1148kts
12-Mar-21 11:38 29.826070 -149.373067 46 57131ft 1148kts
12-Mar-21 11:39 30.047563 -149.097176 47 57149ft 1148kts
12-Mar-21 11:40 30.269652 -148.819007 47 57180ft 1147kts
12-Mar-21 11:41 30.490466 -148.540438 47 57214ft 1147kts
12-Mar-21 11:42 30.711264 -148.259861 47 57245ft 1147kts
12-Mar-21 11:43 30.930283 -147.979512 47 57270ft 1147kts
12-Mar-21 11:44 31.150018 -147.696181 47 57299ft 1147kts
12-Mar-21 11:45 31.368187 -147.412738 47 57359ft 1147kts
12-Mar-21 11:46 31.585826 -147.127869 47 57410ft 1148kts
12-Mar-21 11:47 31.803236 -146.841124 47 57454ft 1149kts
12-Mar-21 11:48 32.021096 -146.551561 47 57498ft 1150kts
12-Mar-21 11:49 32.237302 -146.261966 48 57544ft 1151kts
12-Mar-21 11:50 32.452414 -145.971570 48 57570ft 1151kts
12-Mar-21 11:51 32.667626 -145.678727 48 57585ft 1151kts
12-Mar-21 11:52 32.881963 -145.384850 48 57631ft 1150kts
12-Mar-21 11:53 33.096244 -145.088548 48 57676ft 1150kts
12-Mar-21 11:54 33.308842 -144.792182 48 57734ft 1150kts
12-Mar-21 11:55 33.520657 -144.494458 48 57787ft 1150kts
12-Mar-21 11:56 33.732076 -144.194859 49 57830ft 1150kts
12-Mar-21 11:57 33.942761 -143.893771 49 57865ft 1150kts
12-Mar-21 11:58 34.152972 -143.590807 49 57905ft 1150kts
12-Mar-21 11:59 34.362089 -143.286872 49 57956ft 1151kts
12-Mar-21 12:00 34.570836 -142.980802 49 57992ft 1151kts
12-Mar-21 12:01 34.779499 -142.672198 49 58022ft 1152kts
12-Mar-21 12:02 34.987139 -142.362315 51 58053ft 1153kts
12-Mar-21 12:03 35.176002 -142.052956 53 58082ft 1153kts
12-Mar-21 12:04 35.371077 -141.728398 53 58120ft 1154kts
12-Mar-21 12:05 35.565564 -141.401805 53 58171ft 1154kts
12-Mar-21 12:06 35.758695 -141.074429 53 58224ft 1154kts
12-Mar-21 12:07 35.951310 -140.744819 53 58271ft 1155kts
12-Mar-21 12:08 36.165085 -140.439334 33 58298ft 1152kts
12-Mar-21 12:09 36.411637 -140.172247 40 58364ft 1153kts
12-Mar-21 12:10 36.618335 -139.854638 55 58430ft 1156kts
12-Mar-21 12:11 36.807702 -139.517282 51 58438ft 1156kts
12-Mar-21 12:12 37.006879 -139.190950 52 58462ft 1156kts
12-Mar-21 12:13 37.206073 -138.861509 52 58537ft 1157kts
12-Mar-21 12:14 37.404507 -138.530072 52 58590ft 1157kts
12-Mar-21 12:15 37.601493 -138.197752 53 58597ft 1158kts
12-Mar-21 12:16 37.798083 -137.862744 53 58611ft 1158kts
12-Mar-21 12:17 37.993324 -137.526625 53 58639ft 1158kts
12-Mar-21 12:18 38.188179 -137.187729 53 59009ft 1159kts
12-Mar-21 12:19 38.383362 -136.844718 53 59181ft 1184kts
12-Mar-21 12:20 38.579664 -136.496041 53 59260ft 1181kts
12-Mar-21 12:21 38.774639 -136.145995 54 59227ft 1184kts
12-Mar-21 12:22 38.968282 -135.794537 54 59237ft 1175kts
12-Mar-21 12:24 39.161165 -135.440616 54 59235ft 1176kts
12-Mar-21 12:25 39.352004 -135.086545 55 59234ft 1171kts
12-Mar-21 12:26 39.541695 -134.731015 55 59232ft 1177kts
12-Mar-21 12:27 39.731872 -134.370693 55 59236ft 1181kts
12-Mar-21 12:28 39.919765 -134.010642 55 59234ft 1170kts
12-Mar-21 12:29 40.105652 -133.650341 55 59243ft 1173kts
12-Mar-21 12:30 40.291188 -133.286562 56 59184ft 1167kts
12-Mar-21 12:31 40.473897 -132.924119 56 59179ft 1158kts
12-Mar-21 12:32 40.655760 -132.559129 56 59172ft 1165kts
12-Mar-21 12:33 40.835130 -132.194889 57 59209ft 1157kts
12-Mar-21 12:34 41.013854 -131.827629 57 59174ft 1163kts
12-Mar-21 12:35 41.187794 -131.465947 57 59272ft 1135kts
12-Mar-21 12:36 41.363751 -131.095626 57 59352ft 1175kts
12-Mar-21 12:37 41.540758 -130.718503 57 59342ft 1166kts
12-Mar-21 12:38 41.715375 -130.341843 58 59349ft 1164kts
12-Mar-21 12:39 41.889128 -129.962302 58 59347ft 1164kts
12-Mar-21 12:40 42.061244 -129.581548 58 59323ft 1165kts
12-Mar-21 12:41 42.232506 -129.197804 59 59318ft 1165kts
12-Mar-21 12:42 42.402296 -128.812396 58 59329ft 1166kts
12-Mar-21 12:43 42.571454 -128.423383 58 59331ft 1169kts
12-Mar-21 12:44 42.739028 -128.032868 59 59340ft 1169kts
12-Mar-21 12:45 42.905833 -127.638898 59 59348ft 1169kts
12-Mar-21 12:46 43.070599 -127.244447 60 59346ft 1170kts
12-Mar-21 12:46 43.207195 -126.913302 60 59348ft 1147kts
12-Mar-21 12:47 43.357123 -126.572508 54 59400ft 898kts
12-Mar-21 12:49 43.491787 -126.246351 82 59498ft 788kts
12-Mar-21 12:50 43.462947 -125.955469 104 58509ft 743kts
12-Mar-21 12:51 43.409276 -125.669711 104 54537ft 769kts
12-Mar-21 12:51 43.361891 -125.423862 104 51194ft 764kts
12-Mar-21 12:52 43.306154 -125.145433 104 46917ft 714kts
12-Mar-21 12:53 43.251590 -124.888809 104 42508ft 662kts
12-Mar-21 12:54 43.196605 -124.651904 104 38871ft 615kts
12-Mar-21 12:56 43.142651 -124.394826 81 34598ft 558kts
12-Mar-21 12:56 43.176137 -124.234790 55 33055ft 503kts
12-Mar-21 12:57 43.251673 -124.071429 55 29990ft 492kts
12-Mar-21 12:58 43.326011 -123.912756 54 27288ft 473kts
12-Mar-21 12:59 43.400273 -123.755683 54 26117ft 493kts
12-Mar-21 13:00 43.479552 -123.588932 54 26551ft 513kts
12-Mar-21 13:01 43.553311 -123.432780 54 24410ft 455kts
12-Mar-21 13:02 43.623324 -123.285208 54 21516ft 439kts
12-Mar-21 13:03 43.689987 -123.145248 54 20406ft 420kts
12-Mar-21 13:04 43.757787 -123.003131 54 20391ft 442kts
12-Mar-21 13:05 43.825972 -122.860399 49 20385ft 429kts
12-Mar-21 13:06 43.919746 -122.763250 2 20470ft 428kts
12-Mar-21 13:07 44.041946 -122.756365 3 20348ft 431kts
12-Mar-21 13:08 44.164811 -122.745917 4 20352ft 431kts
12-Mar-21 13:09 44.287632 -122.734482 4 20337ft 433kts
12-Mar-21 13:10 44.410452 -122.722815 4 20343ft 432kts
12-Mar-21 13:11 44.532891 -122.711094 4 20101ft 423kts
12-Mar-21 13:12 44.645651 -122.700429 3 17919ft 381kts
12-Mar-21 13:13 44.752744 -122.690072 3 15518ft 373kts
12-Mar-21 13:14 44.857561 -122.679924 3 13365ft 362kts
12-Mar-21 13:15 44.959324 -122.670018 3 11224ft 354kts
12-Mar-21 13:16 45.058484 -122.659823 3 9091ft 347kts
12-Mar-21 13:17 45.147137 -122.649722 3 7294ft 269kts
12-Mar-21 13:18 45.222929 -122.640949 3 5906ft 267kts
12-Mar-21 13:19 45.298373 -122.632411 3 4995ft 264kts
12-Mar-21 13:20 45.373096 -122.624080 3 5002ft 264kts
12-Mar-21 13:21 45.448017 -122.617771 339 5050ft 262kts
12-Mar-21 13:22 45.496982 -122.696105 304 5019ft 262kts
12-Mar-21 13:23 45.539866 -122.783554 304 5009ft 262kts
12-Mar-21 13:24 45.580519 -122.866404 304 5007ft 242kts
12-Mar-21 13:25 45.620281 -122.947292 310 5002ft 242kts
12-Mar-21 13:26 45.669217 -122.919653 82 4614ft 237kts
12-Mar-21 13:27 45.671612 -122.827650 99 3193ft 221kts
12-Mar-21 13:28 45.646225 -122.752100 119 2095ft 186kts
12-Mar-21 13:29 45.620213 -122.685480 122 1050ft 191kts
12-Mar-21 13:30 45.594584 -122.619990 119 59ft 180kts
12-Mar-21 13:31 45.584512 -122.591756 359 34ft 8kts
12-Mar-21 13:32 45.585846 -122.592962 310 34ft 10kts
12-Mar-21 13:33 45.587694 -122.594898 10 36ft 1kts

Navigation Log

Ident Type
Flight plan parsing failed, navigation log unavailable